sensor_id;sensor_type;location;lat;lon;timestamp;pressure;altitude;pressure_sealevel;temperature;humidity
1694;BME280;71975;47.068;15.408;2023-08-24T00:03:33;97528.94;;;27.81;66.67
1694;BME280;71975;47.068;15.408;2023-08-24T00:08:36;97525.41;;;27.75;66.60
1694;BME280;71975;47.068;15.408;2023-08-24T00:13:40;97520.63;;;27.75;66.35
1694;BME280;71975;47.068;15.408;2023-08-24T00:18:47;97526.97;;;27.70;66.48
1694;BME280;71975;47.068;15.408;2023-08-24T00:23:50;97526.38;;;27.83;65.73
1694;BME280;71975;47.068;15.408;2023-08-24T00:28:55;97522.31;;;27.84;65.94
1694;BME280;71975;47.068;15.408;2023-08-24T00:33:58;97523.66;;;27.72;65.92
1694;BME280;71975;47.068;15.408;2023-08-24T00:39:01;97527.41;;;27.80;66.21
1694;BME280;71975;47.068;15.408;2023-08-24T00:44:05;97521.38;;;27.76;65.78
1694;BME280;71975;47.068;15.408;2023-08-24T00:49:09;97515.38;;;27.66;65.94
1694;BME280;71975;47.068;15.408;2023-08-24T00:54:12;97526.03;;;27.56;66.53
1694;BME280;71975;47.068;15.408;2023-08-24T00:59:16;97521.59;;;27.42;67.85
1694;BME280;71975;47.068;15.408;2023-08-24T01:04:19;97519.13;;;27.33;68.76
1694;BME280;71975;47.068;15.408;2023-08-24T01:09:22;97519.59;;;27.37;68.29
1694;BME280;71975;47.068;15.408;2023-08-24T01:14:33;97514.09;;;27.26;69.72
1694;BME280;71975;47.068;15.408;2023-08-24T01:19:41;97513.78;;;27.41;68.53
1694;BME280;71975;47.068;15.408;2023-08-24T01:24:47;97508.00;;;27.33;69.07
1694;BME280;71975;47.068;15.408;2023-08-24T01:29:55;97506.22;;;27.41;68.94
1694;BME280;71975;47.068;15.408;2023-08-24T01:34:58;97504.91;;;27.42;69.11
1694;BME280;71975;47.068;15.408;2023-08-24T01:40:05;97513.09;;;27.29;69.58
1694;BME280;71975;47.068;15.408;2023-08-24T01:45:14;97514.84;;;26.86;72.17
1694;BME280;71975;47.068;15.408;2023-08-24T01:50:20;97524.53;;;26.52;75.13
1694;BME280;71975;47.068;15.408;2023-08-24T01:55:23;97506.78;;;26.77;74.15
1694;BME280;71975;47.068;15.408;2023-08-24T02:00:28;97511.75;;;26.95;73.93
1694;BME280;71975;47.068;15.408;2023-08-24T02:05:31;97517.38;;;26.73;75.29
1694;BME280;71975;47.068;15.408;2023-08-24T02:10:34;97508.97;;;27.01;73.87
1694;BME280;71975;47.068;15.408;2023-08-24T02:15:38;97497.25;;;27.13;72.67
1694;BME280;71975;47.068;15.408;2023-08-24T02:20:41;97506.88;;;27.07;72.61
1694;BME280;71975;47.068;15.408;2023-08-24T02:25:44;97499.72;;;26.76;74.78
1694;BME280;71975;47.068;15.408;2023-08-24T02:30:49;97499.19;;;26.77;75.50
1694;BME280;71975;47.068;15.408;2023-08-24T02:35:52;97506.06;;;26.60;77.70
1694;BME280;71975;47.068;15.408;2023-08-24T02:41:02;97501.47;;;26.73;76.32
1694;BME280;71975;47.068;15.408;2023-08-24T02:46:08;97506.09;;;26.54;78.63
1694;BME280;71975;47.068;15.408;2023-08-24T02:51:11;97504.31;;;26.57;78.88
1694;BME280;71975;47.068;15.408;2023-08-24T02:56:14;97499.44;;;26.79;76.43
1694;BME280;71975;47.068;15.408;2023-08-24T03:01:18;97510.34;;;26.61;77.25
1694;BME280;71975;47.068;15.408;2023-08-24T03:06:21;97525.00;;;26.67;75.59
1694;BME280;71975;47.068;15.408;2023-08-24T03:11:25;97531.78;;;26.71;73.79
1694;BME280;71975;47.068;15.408;2023-08-24T03:16:29;97527.00;;;26.61;74.70
1694;BME280;71975;47.068;15.408;2023-08-24T03:21:32;97525.00;;;26.56;74.98
1694;BME280;71975;47.068;15.408;2023-08-24T03:26:35;97532.38;;;26.31;76.69
1694;BME280;71975;47.068;15.408;2023-08-24T03:31:40;97540.75;;;26.20;78.42
1694;BME280;71975;47.068;15.408;2023-08-24T03:36:43;97538.97;;;26.28;77.44
1694;BME280;71975;47.068;15.408;2023-08-24T03:41:47;97539.19;;;26.35;77.59
1694;BME280;71975;47.068;15.408;2023-08-24T03:46:51;97536.16;;;26.45;76.35
1694;BME280;71975;47.068;15.408;2023-08-24T03:51:54;97533.13;;;26.43;76.40
1694;BME280;71975;47.068;15.408;2023-08-24T03:56:57;97535.63;;;26.52;76.16
1694;BME280;71975;47.068;15.408;2023-08-24T04:02:01;97542.72;;;26.42;76.91
1694;BME280;71975;47.068;15.408;2023-08-24T04:07:04;97537.13;;;26.53;75.41
1694;BME280;71975;47.068;15.408;2023-08-24T04:12:08;97527.31;;;26.41;75.88
1694;BME280;71975;47.068;15.408;2023-08-24T04:17:12;97535.94;;;26.37;75.04
1694;BME280;71975;47.068;15.408;2023-08-24T04:22:15;97538.69;;;26.37;73.74
1694;BME280;71975;47.068;15.408;2023-08-24T04:27:19;97546.03;;;26.40;73.32
1694;BME280;71975;47.068;15.408;2023-08-24T04:32:24;97551.06;;;26.36;73.34
1694;BME280;71975;47.068;15.408;2023-08-24T04:37:27;97555.84;;;26.47;72.58
1694;BME280;71975;47.068;15.408;2023-08-24T04:42:30;97556.59;;;26.42;73.08
1694;BME280;71975;47.068;15.408;2023-08-24T04:47:34;97562.66;;;26.51;72.11
1694;BME280;71975;47.068;15.408;2023-08-24T04:52:37;97564.88;;;26.58;71.89
1694;BME280;71975;47.068;15.408;2023-08-24T04:57:40;97567.19;;;26.49;72.67
1694;BME280;71975;47.068;15.408;2023-08-24T05:02:45;97558.81;;;26.60;72.51
1694;BME280;71975;47.068;15.408;2023-08-24T05:07:48;97566.13;;;26.74;71.90
1694;BME280;71975;47.068;15.408;2023-08-24T05:12:51;97569.16;;;26.65;72.96
1694;BME280;71975;47.068;15.408;2023-08-24T05:17:55;97573.44;;;26.77;72.32
1694;BME280;71975;47.068;15.408;2023-08-24T05:23:01;97566.84;;;26.91;71.79
1694;BME280;71975;47.068;15.408;2023-08-24T05:28:04;97568.22;;;27.20;70.55
1694;BME280;71975;47.068;15.408;2023-08-24T05:33:09;97575.66;;;27.52;69.05
1694;BME280;71975;47.068;15.408;2023-08-24T05:38:12;97568.72;;;27.70;68.53
1694;BME280;71975;47.068;15.408;2023-08-24T05:43:15;97568.06;;;27.88;68.33
1694;BME280;71975;47.068;15.408;2023-08-24T05:48:19;97567.44;;;28.06;66.94
1694;BME280;71975;47.068;15.408;2023-08-24T05:53:22;97570.94;;;28.37;64.15
1694;BME280;71975;47.068;15.408;2023-08-24T05:58:25;97572.88;;;28.47;63.03
1694;BME280;71975;47.068;15.408;2023-08-24T06:03:29;97569.97;;;28.82;60.49
1694;BME280;71975;47.068;15.408;2023-08-24T06:08:32;97560.63;;;29.23;58.58
1694;BME280;71975;47.068;15.408;2023-08-24T06:13:35;97574.72;;;29.49;57.76
1694;BME280;71975;47.068;15.408;2023-08-24T06:18:39;97572.03;;;29.75;56.31
1694;BME280;71975;47.068;15.408;2023-08-24T06:23:42;97570.69;;;30.13;54.35
1694;BME280;71975;47.068;15.408;2023-08-24T06:28:46;97578.84;;;30.43;53.38
1694;BME280;71975;47.068;15.408;2023-08-24T06:33:51;97566.06;;;30.74;51.74
1694;BME280;71975;47.068;15.408;2023-08-24T06:38:54;97571.94;;;31.23;50.47
1694;BME280;71975;47.068;15.408;2023-08-24T06:43:59;97572.47;;;31.47;49.40
1694;BME280;71975;47.068;15.408;2023-08-24T06:49:03;97577.78;;;31.92;47.93
1694;BME280;71975;47.068;15.408;2023-08-24T06:54:06;97571.66;;;32.35;46.99
1694;BME280;71975;47.068;15.408;2023-08-24T06:59:09;97569.78;;;32.87;45.10
1694;BME280;71975;47.068;15.408;2023-08-24T07:04:15;97572.88;;;33.04;44.34
1694;BME280;71975;47.068;15.408;2023-08-24T07:09:19;97563.00;;;33.54;43.56
1694;BME280;71975;47.068;15.408;2023-08-24T07:14:22;97567.22;;;34.21;41.55
1694;BME280;71975;47.068;15.408;2023-08-24T07:19:26;97561.94;;;34.85;40.28
1694;BME280;71975;47.068;15.408;2023-08-24T07:24:29;97567.31;;;35.61;38.60
1694;BME280;71975;47.068;15.408;2023-08-24T07:29:47;97573.06;;;35.95;37.16
1694;BME280;71975;47.068;15.408;2023-08-24T07:34:51;97570.50;;;36.81;35.18
1694;BME280;71975;47.068;15.408;2023-08-24T07:39:54;97565.00;;;37.51;33.79
1694;BME280;71975;47.068;15.408;2023-08-24T07:44:57;97561.06;;;38.27;32.89
1694;BME280;71975;47.068;15.408;2023-08-24T07:50:01;97560.94;;;38.99;32.01
1694;BME280;71975;47.068;15.408;2023-08-24T07:55:05;97555.41;;;39.40;30.63
1694;BME280;71975;47.068;15.408;2023-08-24T08:00:09;97566.59;;;39.97;30.18
1694;BME280;71975;47.068;15.408;2023-08-24T08:05:14;97565.66;;;39.64;29.97
1694;BME280;71975;47.068;15.408;2023-08-24T08:10:17;97567.81;;;40.34;29.24
1694;BME280;71975;47.068;15.408;2023-08-24T08:15:22;97563.53;;;40.97;28.63
1694;BME280;71975;47.068;15.408;2023-08-24T08:20:27;97573.31;;;40.11;29.66
1694;BME280;71975;47.068;15.408;2023-08-24T08:25:30;97563.03;;;41.22;28.88
1694;BME280;71975;47.068;15.408;2023-08-24T08:30:35;97567.88;;;40.77;29.58
1694;BME280;71975;47.068;15.408;2023-08-24T08:35:40;97560.09;;;40.25;29.74
1694;BME280;71975;47.068;15.408;2023-08-24T08:40:43;97552.72;;;38.94;31.35
1694;BME280;71975;47.068;15.408;2023-08-24T08:45:49;97559.53;;;40.48;29.10
1694;BME280;71975;47.068;15.408;2023-08-24T08:50:53;97552.94;;;40.97;27.77
1694;BME280;71975;47.068;15.408;2023-08-24T08:55:58;97550.78;;;41.19;28.15
1694;BME280;71975;47.068;15.408;2023-08-24T09:01:05;97546.03;;;41.00;27.58
1694;BME280;71975;47.068;15.408;2023-08-24T09:06:10;97551.66;;;41.22;27.67
1694;BME280;71975;47.068;15.408;2023-08-24T09:11:14;97550.03;;;40.65;28.17
1694;BME280;71975;47.068;15.408;2023-08-24T09:16:19;97547.22;;;41.51;27.33
1694;BME280;71975;47.068;15.408;2023-08-24T09:21:24;97542.50;;;41.44;27.75
1694;BME280;71975;47.068;15.408;2023-08-24T09:26:28;97540.63;;;42.05;26.51
1694;BME280;71975;47.068;15.408;2023-08-24T09:31:35;97536.78;;;42.58;25.81
1694;BME280;71975;47.068;15.408;2023-08-24T09:36:40;97532.81;;;41.94;26.77
1694;BME280;71975;47.068;15.408;2023-08-24T09:41:45;97537.16;;;41.06;27.61
1694;BME280;71975;47.068;15.408;2023-08-24T09:46:49;97523.28;;;42.01;25.35
1694;BME280;71975;47.068;15.408;2023-08-24T09:51:56;97527.78;;;41.36;27.47
1694;BME280;71975;47.068;15.408;2023-08-24T09:57:01;97518.94;;;40.36;28.87
1694;BME280;71975;47.068;15.408;2023-08-24T10:02:14;97505.00;;;39.88;29.52
1694;BME280;71975;47.068;15.408;2023-08-24T10:07:20;97503.16;;;41.74;26.49
1694;BME280;71975;47.068;15.408;2023-08-24T10:12:28;97487.56;;;41.75;26.73
1694;BME280;71975;47.068;15.408;2023-08-24T10:17:31;97492.34;;;41.49;27.02
1694;BME280;71975;47.068;15.408;2023-08-24T10:22:37;97487.78;;;42.25;25.60
1694;BME280;71975;47.068;15.408;2023-08-24T10:27:42;97487.00;;;41.43;27.42
1694;BME280;71975;47.068;15.408;2023-08-24T10:32:47;97482.81;;;42.49;25.45
1694;BME280;71975;47.068;15.408;2023-08-24T10:37:58;97483.09;;;42.06;25.80
1694;BME280;71975;47.068;15.408;2023-08-24T10:43:04;97481.63;;;42.17;25.59
1694;BME280;71975;47.068;15.408;2023-08-24T10:48:10;97467.69;;;42.58;25.94
1694;BME280;71975;47.068;15.408;2023-08-24T10:53:37;97461.88;;;43.18;24.95
1694;BME280;71975;47.068;15.408;2023-08-24T10:58:40;97458.44;;;43.85;23.93
1694;BME280;71975;47.068;15.408;2023-08-24T11:03:49;97464.06;;;44.38;23.54
1694;BME280;71975;47.068;15.408;2023-08-24T11:09:06;97460.69;;;44.14;23.47
1694;BME280;71975;47.068;15.408;2023-08-24T11:14:14;97448.28;;;43.82;23.87
1694;BME280;71975;47.068;15.408;2023-08-24T11:19:18;97448.94;;;44.78;23.79
1694;BME280;71975;47.068;15.408;2023-08-24T11:24:23;97443.63;;;44.57;23.57
1694;BME280;71975;47.068;15.408;2023-08-24T11:29:27;97433.72;;;45.63;22.49
1694;BME280;71975;47.068;15.408;2023-08-24T11:34:30;97425.69;;;43.86;23.72
1694;BME280;71975;47.068;15.408;2023-08-24T11:39:34;97432.63;;;44.80;22.29
1694;BME280;71975;47.068;15.408;2023-08-24T11:44:45;97424.59;;;44.48;22.46
1694;BME280;71975;47.068;15.408;2023-08-24T11:49:48;97424.25;;;42.57;25.70
1694;BME280;71975;47.068;15.408;2023-08-24T11:54:53;97425.91;;;44.17;23.41
1694;BME280;71975;47.068;15.408;2023-08-24T11:59:56;97415.03;;;45.15;23.15
1694;BME280;71975;47.068;15.408;2023-08-24T12:04:59;97411.31;;;42.31;26.55
1694;BME280;71975;47.068;15.408;2023-08-24T12:10:04;97410.66;;;43.99;24.98
1694;BME280;71975;47.068;15.408;2023-08-24T12:15:15;97400.19;;;45.19;22.40
1694;BME280;71975;47.068;15.408;2023-08-24T12:20:19;97387.31;;;45.33;22.38
1694;BME280;71975;47.068;15.408;2023-08-24T12:25:25;97394.50;;;44.17;23.91
1694;BME280;71975;47.068;15.408;2023-08-24T12:30:28;97367.63;;;45.73;22.17
1694;BME280;71975;47.068;15.408;2023-08-24T12:35:30;97371.16;;;46.73;21.24
1694;BME280;71975;47.068;15.408;2023-08-24T12:40:35;97359.31;;;47.18;20.94
1694;BME280;71975;47.068;15.408;2023-08-24T12:45:38;97367.19;;;44.71;23.41
1694;BME280;71975;47.068;15.408;2023-08-24T12:50:41;97357.81;;;41.81;27.52
1694;BME280;71975;47.068;15.408;2023-08-24T12:55:45;97358.22;;;44.06;24.91
1694;BME280;71975;47.068;15.408;2023-08-24T13:00:48;97354.41;;;43.07;26.12
1694;BME280;71975;47.068;15.408;2023-08-24T13:05:51;97335.66;;;42.40;27.01
1694;BME280;71975;47.068;15.408;2023-08-24T13:11:00;97333.28;;;42.11;27.64
1694;BME280;71975;47.068;15.408;2023-08-24T13:16:04;97323.25;;;41.15;29.34
1694;BME280;71975;47.068;15.408;2023-08-24T13:21:07;97319.22;;;40.85;30.17
1694;BME280;71975;47.068;15.408;2023-08-24T13:26:18;97302.63;;;40.59;30.57
1694;BME280;71975;47.068;15.408;2023-08-24T13:31:21;97292.06;;;40.05;30.85
1694;BME280;71975;47.068;15.408;2023-08-24T13:36:24;97304.50;;;39.79;31.03
1694;BME280;71975;47.068;15.408;2023-08-24T13:41:29;97294.91;;;39.32;31.92
1694;BME280;71975;47.068;15.408;2023-08-24T13:46:31;97293.78;;;38.85;32.80
1694;BME280;71975;47.068;15.408;2023-08-24T13:51:34;97289.63;;;38.77;32.84
1694;BME280;71975;47.068;15.408;2023-08-24T13:56:39;97288.84;;;38.86;32.28
1694;BME280;71975;47.068;15.408;2023-08-24T14:01:42;97276.72;;;38.26;34.47
1694;BME280;71975;47.068;15.408;2023-08-24T14:06:45;97280.28;;;38.55;33.61
1694;BME280;71975;47.068;15.408;2023-08-24T14:11:51;97288.59;;;38.72;33.28
1694;BME280;71975;47.068;15.408;2023-08-24T14:16:54;97279.84;;;38.39;34.51
1694;BME280;71975;47.068;15.408;2023-08-24T14:21:58;97283.75;;;38.34;35.19
1694;BME280;71975;47.068;15.408;2023-08-24T14:27:03;97291.72;;;37.52;36.69
1694;BME280;71975;47.068;15.408;2023-08-24T14:32:06;97275.97;;;37.68;36.78
1694;BME280;71975;47.068;15.408;2023-08-24T14:37:09;97280.91;;;37.86;35.88
1694;BME280;71975;47.068;15.408;2023-08-24T14:42:14;97266.84;;;36.95;37.11
1694;BME280;71975;47.068;15.408;2023-08-24T14:47:16;97262.56;;;37.49;36.10
1694;BME280;71975;47.068;15.408;2023-08-24T14:52:22;97251.00;;;37.09;36.95
1694;BME280;71975;47.068;15.408;2023-08-24T14:57:26;97238.91;;;35.75;40.30
1694;BME280;71975;47.068;15.408;2023-08-24T15:02:29;97239.81;;;35.94;40.15
1694;BME280;71975;47.068;15.408;2023-08-24T15:07:33;97237.09;;;35.28;42.49
1694;BME280;71975;47.068;15.408;2023-08-24T15:12:38;97226.25;;;35.24;42.37
1694;BME280;71975;47.068;15.408;2023-08-24T15:17:41;97229.78;;;35.67;41.74
1694;BME280;71975;47.068;15.408;2023-08-24T15:22:43;97220.31;;;35.89;41.76
1694;BME280;71975;47.068;15.408;2023-08-24T15:27:48;97216.56;;;36.21;41.05
1694;BME280;71975;47.068;15.408;2023-08-24T15:32:51;97214.53;;;36.04;41.05
1694;BME280;71975;47.068;15.408;2023-08-24T15:37:54;97209.66;;;36.14;40.53
1694;BME280;71975;47.068;15.408;2023-08-24T15:42:59;97211.44;;;36.36;40.63
1694;BME280;71975;47.068;15.408;2023-08-24T15:48:02;97204.06;;;35.97;41.70
1694;BME280;71975;47.068;15.408;2023-08-24T15:53:05;97193.16;;;35.67;42.57
1694;BME280;71975;47.068;15.408;2023-08-24T15:58:09;97187.25;;;35.21;43.04
1694;BME280;71975;47.068;15.408;2023-08-24T16:03:12;97181.22;;;35.59;42.43
1694;BME280;71975;47.068;15.408;2023-08-24T16:08:15;97191.84;;;35.68;42.29
1694;BME280;71975;47.068;15.408;2023-08-24T16:13:20;97180.66;;;35.77;41.75
1694;BME280;71975;47.068;15.408;2023-08-24T16:18:26;97184.56;;;35.65;42.29
1694;BME280;71975;47.068;15.408;2023-08-24T16:23:29;97179.59;;;35.73;42.36
1694;BME280;71975;47.068;15.408;2023-08-24T16:28:34;97180.06;;;35.62;42.60
1694;BME280;71975;47.068;15.408;2023-08-24T16:33:37;97175.25;;;35.72;42.75
1694;BME280;71975;47.068;15.408;2023-08-24T16:38:40;97174.44;;;35.62;42.81
1694;BME280;71975;47.068;15.408;2023-08-24T16:43:44;97173.09;;;35.46;43.33
1694;BME280;71975;47.068;15.408;2023-08-24T16:48:47;97179.50;;;35.46;42.86
1694;BME280;71975;47.068;15.408;2023-08-24T16:53:50;97191.91;;;35.01;44.35
1694;BME280;71975;47.068;15.408;2023-08-24T16:58:55;97188.47;;;35.10;43.80
1694;BME280;71975;47.068;15.408;2023-08-24T17:03:59;97192.19;;;35.13;44.36
1694;BME280;71975;47.068;15.408;2023-08-24T17:09:02;97193.41;;;35.02;44.04
1694;BME280;71975;47.068;15.408;2023-08-24T17:14:07;97194.47;;;34.65;45.22
1694;BME280;71975;47.068;15.408;2023-08-24T17:19:10;97187.75;;;34.60;45.38
1694;BME280;71975;47.068;15.408;2023-08-24T17:24:15;97186.78;;;34.65;45.19
1694;BME280;71975;47.068;15.408;2023-08-24T17:29:21;97189.47;;;34.56;45.88
1694;BME280;71975;47.068;15.408;2023-08-24T17:34:25;97199.94;;;34.63;45.24
1694;BME280;71975;47.068;15.408;2023-08-24T17:39:29;97202.22;;;34.49;46.31
1694;BME280;71975;47.068;15.408;2023-08-24T17:44:35;97209.22;;;34.41;46.46
1694;BME280;71975;47.068;15.408;2023-08-24T17:49:39;97218.28;;;34.32;46.26
1694;BME280;71975;47.068;15.408;2023-08-24T17:54:44;97224.00;;;34.17;46.78
1694;BME280;71975;47.068;15.408;2023-08-24T17:59:51;97237.47;;;34.18;47.63
1694;BME280;71975;47.068;15.408;2023-08-24T18:04:56;97232.44;;;34.01;48.70
1694;BME280;71975;47.068;15.408;2023-08-24T18:10:01;97241.47;;;34.08;48.41
1694;BME280;71975;47.068;15.408;2023-08-24T18:15:09;97248.06;;;33.87;48.77
1694;BME280;71975;47.068;15.408;2023-08-24T18:20:26;97243.41;;;33.82;48.62
1694;BME280;71975;47.068;15.408;2023-08-24T18:25:31;97251.66;;;33.80;49.18
1694;BME280;71975;47.068;15.408;2023-08-24T18:30:38;97244.00;;;33.73;49.79
1694;BME280;71975;47.068;15.408;2023-08-24T18:35:44;97245.88;;;33.63;50.38
1694;BME280;71975;47.068;15.408;2023-08-24T18:40:51;97251.31;;;33.46;51.12
1694;BME280;71975;47.068;15.408;2023-08-24T18:45:59;97257.34;;;33.35;51.80
1694;BME280;71975;47.068;15.408;2023-08-24T18:51:05;97264.44;;;33.36;52.55
1694;BME280;71975;47.068;15.408;2023-08-24T18:56:10;97248.53;;;33.23;52.91
1694;BME280;71975;47.068;15.408;2023-08-24T19:01:17;97251.34;;;33.23;52.97
1694;BME280;71975;47.068;15.408;2023-08-24T19:06:22;97247.81;;;33.08;53.05
1694;BME280;71975;47.068;15.408;2023-08-24T19:11:42;97251.53;;;32.95;53.89
1694;BME280;71975;47.068;15.408;2023-08-24T19:16:50;97247.03;;;32.69;55.00
1694;BME280;71975;47.068;15.408;2023-08-24T19:21:55;97242.91;;;32.70;55.06
1694;BME280;71975;47.068;15.408;2023-08-24T19:27:01;97230.94;;;32.77;54.85
1694;BME280;71975;47.068;15.408;2023-08-24T19:32:09;97232.81;;;32.52;55.54
1694;BME280;71975;47.068;15.408;2023-08-24T19:37:15;97221.59;;;32.52;55.54
1694;BME280;71975;47.068;15.408;2023-08-24T19:42:20;97227.19;;;32.52;56.05
1694;BME280;71975;47.068;15.408;2023-08-24T19:47:29;97222.63;;;32.34;56.43
1694;BME280;71975;47.068;15.408;2023-08-24T19:52:35;97212.97;;;32.43;56.02
1694;BME280;71975;47.068;15.408;2023-08-24T19:57:46;97203.56;;;32.25;56.65
1694;BME280;71975;47.068;15.408;2023-08-24T20:02:54;97200.78;;;32.33;55.97
1694;BME280;71975;47.068;15.408;2023-08-24T20:08:00;97189.75;;;32.27;56.83
1694;BME280;71975;47.068;15.408;2023-08-24T20:13:06;97189.72;;;32.12;57.21
1694;BME280;71975;47.068;15.408;2023-08-24T20:18:13;97179.97;;;31.98;57.83
1694;BME280;71975;47.068;15.408;2023-08-24T20:23:19;97184.41;;;31.93;58.28
1694;BME280;71975;47.068;15.408;2023-08-24T20:28:24;97192.13;;;31.65;58.96
1694;BME280;71975;47.068;15.408;2023-08-24T20:33:35;97181.72;;;31.73;58.54
1694;BME280;71975;47.068;15.408;2023-08-24T20:38:40;97176.50;;;31.77;58.30
1694;BME280;71975;47.068;15.408;2023-08-24T20:43:45;97164.50;;;31.61;59.55
1694;BME280;71975;47.068;15.408;2023-08-24T20:48:51;97168.00;;;31.54;60.21
1694;BME280;71975;47.068;15.408;2023-08-24T20:53:56;97168.03;;;31.62;59.74
1694;BME280;71975;47.068;15.408;2023-08-24T20:59:01;97161.34;;;31.29;61.84
1694;BME280;71975;47.068;15.408;2023-08-24T21:04:07;97165.09;;;31.31;62.10
1694;BME280;71975;47.068;15.408;2023-08-24T21:09:10;97157.69;;;31.13;63.35
1694;BME280;71975;47.068;15.408;2023-08-24T21:14:13;97167.75;;;31.09;63.94
1694;BME280;71975;47.068;15.408;2023-08-24T21:19:18;97148.91;;;31.09;63.80
1694;BME280;71975;47.068;15.408;2023-08-24T21:24:20;97136.34;;;30.95;64.37
1694;BME280;71975;47.068;15.408;2023-08-24T21:29:23;97137.63;;;30.94;64.38
1694;BME280;71975;47.068;15.408;2023-08-24T21:34:28;97141.69;;;30.65;65.93
1694;BME280;71975;47.068;15.408;2023-08-24T21:39:30;97159.13;;;30.78;65.06
1694;BME280;71975;47.068;15.408;2023-08-24T21:44:33;97162.47;;;30.77;65.57
1694;BME280;71975;47.068;15.408;2023-08-24T21:49:38;97162.91;;;30.40;67.50
1694;BME280;71975;47.068;15.408;2023-08-24T21:54:41;97173.19;;;30.45;67.02
1694;BME280;71975;47.068;15.408;2023-08-24T21:59:44;97172.97;;;30.43;67.16
1694;BME280;71975;47.068;15.408;2023-08-24T22:04:48;97179.25;;;30.36;67.10
1694;BME280;71975;47.068;15.408;2023-08-24T22:09:51;97174.16;;;30.13;68.79
1694;BME280;71975;47.068;15.408;2023-08-24T22:14:54;97178.78;;;30.11;68.82
1694;BME280;71975;47.068;15.408;2023-08-24T22:20:00;97194.31;;;30.19;68.26
1694;BME280;71975;47.068;15.408;2023-08-24T22:25:05;97193.56;;;30.19;68.20
1694;BME280;71975;47.068;15.408;2023-08-24T22:30:09;97196.06;;;30.09;68.56
1694;BME280;71975;47.068;15.408;2023-08-24T22:35:14;97196.03;;;29.89;69.57
1694;BME280;71975;47.068;15.408;2023-08-24T22:40:17;97190.31;;;29.94;69.38
1694;BME280;71975;47.068;15.408;2023-08-24T22:45:21;97195.50;;;29.90;69.54
1694;BME280;71975;47.068;15.408;2023-08-24T22:50:26;97195.09;;;29.86;69.67
1694;BME280;71975;47.068;15.408;2023-08-24T22:55:32;97183.16;;;29.86;69.60
1694;BME280;71975;47.068;15.408;2023-08-24T23:00:37;97172.66;;;29.79;69.67
1694;BME280;71975;47.068;15.408;2023-08-24T23:05:41;97172.00;;;29.73;69.87
1694;BME280;71975;47.068;15.408;2023-08-24T23:10:44;97160.53;;;29.63;70.25
1694;BME280;71975;47.068;15.408;2023-08-24T23:15:47;97153.03;;;29.58;70.34
1694;BME280;71975;47.068;15.408;2023-08-24T23:20:51;97138.00;;;29.61;70.06
1694;BME280;71975;47.068;15.408;2023-08-24T23:25:55;97138.09;;;29.69;69.25
1694;BME280;71975;47.068;15.408;2023-08-24T23:31:00;97140.69;;;29.53;70.18
1694;BME280;71975;47.068;15.408;2023-08-24T23:36:04;97139.41;;;29.54;70.43
1694;BME280;71975;47.068;15.408;2023-08-24T23:41:07;97131.81;;;29.42;70.69
1694;BME280;71975;47.068;15.408;2023-08-24T23:46:10;97118.63;;;29.29;71.74
1694;BME280;71975;47.068;15.408;2023-08-24T23:51:14;97116.59;;;29.30;71.25
1694;BME280;71975;47.068;15.408;2023-08-24T23:56:17;97102.78;;;29.24;71.91
